aviador You're here:

LFRB Decoded Metar

BREST in FRANCE
Report Time2018-07-18 20:00:00
UTC Time2018-07-18 20:12:37
Flight Rules vfr VFR
Wind360° at 06 kt
W.Decomp.*RWY 07: 2.3 kt HW 5.5 kt LCW
Visibility9999 m
Phenomena:N/A
Clouds:N/A
Expected CloudBase > 1,600 ft AGL from Temp-Dew spread
CeilingNone
Temp17°C (ISA +3)
Dew Point13°C (77% RH)
AAT15.8°C
QNH1019 hPa
Density Alt653 ft
Elevation338 ft
Report Wrong Elevation
Raw Report
METAR LFRB 182000Z AUTO 36006KT CAVOK 17/13 Q1019 NOSIG=

Extra information for LFRB:More info

Metar Taf Metar & Taf Last 4 Metars F.Rules Stats Wind Profile Meteogram Temp Stats Airport Information Weather charts Add Link Nearby VenuesMetar ALERT Operation Metar Decoded Social comments